sensor_id;sensor_type;location;lat;lon;timestamp;pressure;altitude;pressure_sealevel;temperature;humidity
75290;BME280;63883;48.996;20.804;2023-03-29T00:02:08;96957.97;;;-4.38;71.69
75290;BME280;63883;48.996;20.804;2023-03-29T00:04:34;96956.00;;;-4.46;72.93
75290;BME280;63883;48.996;20.804;2023-03-29T00:07:00;96949.09;;;-4.53;72.00
75290;BME280;63883;48.996;20.804;2023-03-29T00:09:29;96959.59;;;-4.62;72.00
75290;BME280;63883;48.996;20.804;2023-03-29T00:11:58;96953.69;;;-4.64;71.49
75290;BME280;63883;48.996;20.804;2023-03-29T00:14:24;96956.75;;;-4.71;71.75
75290;BME280;63883;48.996;20.804;2023-03-29T00:16:51;96953.53;;;-4.68;71.60
75290;BME280;63883;48.996;20.804;2023-03-29T00:19:17;96953.91;;;-4.58;71.04
75290;BME280;63883;48.996;20.804;2023-03-29T00:21:43;96956.53;;;-4.55;71.10
75290;BME280;63883;48.996;20.804;2023-03-29T00:24:08;96960.53;;;-4.58;70.60
75290;BME280;63883;48.996;20.804;2023-03-29T00:26:34;96957.25;;;-4.57;69.78
75290;BME280;63883;48.996;20.804;2023-03-29T00:29:00;96953.75;;;-4.40;68.99
75290;BME280;63883;48.996;20.804;2023-03-29T00:31:25;96966.13;;;-4.42;69.05
75290;BME280;63883;48.996;20.804;2023-03-29T00:33:51;96963.44;;;-4.24;67.31
75290;BME280;63883;48.996;20.804;2023-03-29T00:36:17;96962.59;;;-4.24;67.02
75290;BME280;63883;48.996;20.804;2023-03-29T00:38:43;96957.19;;;-4.37;67.27
75290;BME280;63883;48.996;20.804;2023-03-29T00:41:09;96966.44;;;-4.56;67.65
75290;BME280;63883;48.996;20.804;2023-03-29T00:43:57;96964.66;;;-4.59;67.54
75290;BME280;63883;48.996;20.804;2023-03-29T00:46:25;96959.34;;;-4.68;67.57
75290;BME280;63883;48.996;20.804;2023-03-29T00:48:54;96959.81;;;-4.56;66.23
75290;BME280;63883;48.996;20.804;2023-03-29T00:51:23;96954.63;;;-4.62;66.89
75290;BME280;63883;48.996;20.804;2023-03-29T00:53:52;96952.63;;;-4.70;66.83
75290;BME280;63883;48.996;20.804;2023-03-29T00:56:38;96949.63;;;-4.84;67.01
75290;BME280;63883;48.996;20.804;2023-03-29T00:59:05;96946.91;;;-4.90;67.04
75290;BME280;63883;48.996;20.804;2023-03-29T01:02:05;96945.53;;;-4.82;67.06
75290;BME280;63883;48.996;20.804;2023-03-29T01:04:47;96947.47;;;-4.75;65.84
75290;BME280;63883;48.996;20.804;2023-03-29T01:07:26;96943.97;;;-4.80;66.17
75290;BME280;63883;48.996;20.804;2023-03-29T01:09:58;96944.59;;;-4.86;66.07
75290;BME280;63883;48.996;20.804;2023-03-29T01:12:30;96949.56;;;-4.86;66.33
75290;BME280;63883;48.996;20.804;2023-03-29T01:15:21;96952.13;;;-4.84;64.93
75290;BME280;63883;48.996;20.804;2023-03-29T01:17:49;96950.78;;;-4.97;66.06
75290;BME280;63883;48.996;20.804;2023-03-29T01:29:12;96951.94;;;-5.09;65.99
75290;BME280;63883;48.996;20.804;2023-03-29T01:31:43;96945.13;;;-5.15;66.65
75290;BME280;63883;48.996;20.804;2023-03-29T01:37:13;96947.28;;;-5.23;67.16
75290;BME280;63883;48.996;20.804;2023-03-29T01:39:42;96949.72;;;-5.24;66.87
75290;BME280;63883;48.996;20.804;2023-03-29T01:44:57;96951.91;;;-5.32;66.73
75290;BME280;63883;48.996;20.804;2023-03-29T01:50:17;96949.66;;;-5.46;67.10
75290;BME280;63883;48.996;20.804;2023-03-29T01:52:59;96952.63;;;-5.55;66.47
75290;BME280;63883;48.996;20.804;2023-03-29T01:55:31;96952.44;;;-5.60;66.98
75290;BME280;63883;48.996;20.804;2023-03-29T01:57:59;96952.63;;;-5.55;66.41
75290;BME280;63883;48.996;20.804;2023-03-29T02:00:28;96957.69;;;-5.73;66.48
75290;BME280;63883;48.996;20.804;2023-03-29T02:02:57;96958.75;;;-5.87;67.35
75290;BME280;63883;48.996;20.804;2023-03-29T02:05:26;96958.41;;;-5.96;68.64
75290;BME280;63883;48.996;20.804;2023-03-29T02:07:53;96959.94;;;-5.79;67.13
75290;BME280;63883;48.996;20.804;2023-03-29T02:10:21;96960.13;;;-5.54;67.01
75290;BME280;63883;48.996;20.804;2023-03-29T02:12:48;96957.47;;;-5.37;66.22
75290;BME280;63883;48.996;20.804;2023-03-29T02:15:17;96961.00;;;-5.32;65.65
75290;BME280;63883;48.996;20.804;2023-03-29T02:17:44;96959.97;;;-5.37;65.25
75290;BME280;63883;48.996;20.804;2023-03-29T02:20:33;96961.59;;;-5.38;65.37
75290;BME280;63883;48.996;20.804;2023-03-29T02:23:16;96955.41;;;-5.06;63.77
75290;BME280;63883;48.996;20.804;2023-03-29T02:25:44;96968.16;;;-5.19;64.67
75290;BME280;63883;48.996;20.804;2023-03-29T02:28:11;96957.94;;;-5.25;65.16
75290;BME280;63883;48.996;20.804;2023-03-29T02:33:16;96956.03;;;-5.32;64.98
75290;BME280;63883;48.996;20.804;2023-03-29T02:35:51;96962.63;;;-5.33;64.99
75290;BME280;63883;48.996;20.804;2023-03-29T02:38:19;96956.28;;;-5.26;65.29
75290;BME280;63883;48.996;20.804;2023-03-29T02:40:46;96956.63;;;-5.17;64.51
75290;BME280;63883;48.996;20.804;2023-03-29T02:43:13;96950.53;;;-5.03;63.57
75290;BME280;63883;48.996;20.804;2023-03-29T02:45:41;96963.75;;;-5.04;63.17
75290;BME280;63883;48.996;20.804;2023-03-29T02:48:10;96970.34;;;-5.27;63.44
75290;BME280;63883;48.996;20.804;2023-03-29T02:50:39;96970.59;;;-5.41;64.14
75290;BME280;63883;48.996;20.804;2023-03-29T02:53:14;96969.53;;;-5.46;64.10
75290;BME280;63883;48.996;20.804;2023-03-29T02:55:41;96981.59;;;-5.56;64.68
75290;BME280;63883;48.996;20.804;2023-03-29T02:58:10;96981.81;;;-5.70;64.93
75290;BME280;63883;48.996;20.804;2023-03-29T03:00:41;96972.50;;;-5.95;65.75
75290;BME280;63883;48.996;20.804;2023-03-29T03:03:10;96965.84;;;-6.15;67.31
75290;BME280;63883;48.996;20.804;2023-03-29T03:05:37;96966.63;;;-6.36;67.93
75290;BME280;63883;48.996;20.804;2023-03-29T03:08:04;96969.19;;;-6.34;67.24
75290;BME280;63883;48.996;20.804;2023-03-29T03:10:35;96972.38;;;-6.37;66.40
75290;BME280;63883;48.996;20.804;2023-03-29T03:13:01;96974.88;;;-6.54;66.70
75290;BME280;63883;48.996;20.804;2023-03-29T03:15:27;96969.06;;;-6.55;67.43
75290;BME280;63883;48.996;20.804;2023-03-29T03:17:53;96974.59;;;-6.43;67.83
75290;BME280;63883;48.996;20.804;2023-03-29T03:20:19;96975.09;;;-6.13;68.00
75290;BME280;63883;48.996;20.804;2023-03-29T03:22:48;96978.75;;;-5.84;66.61
75290;BME280;63883;48.996;20.804;2023-03-29T03:25:15;96985.53;;;-5.80;66.07
75290;BME280;63883;48.996;20.804;2023-03-29T03:27:42;96985.94;;;-5.71;65.47
75290;BME280;63883;48.996;20.804;2023-03-29T03:30:08;96992.00;;;-5.64;64.88
75290;BME280;63883;48.996;20.804;2023-03-29T03:32:34;96995.66;;;-5.56;64.67
75290;BME280;63883;48.996;20.804;2023-03-29T03:35:01;96994.34;;;-5.67;65.02
75290;BME280;63883;48.996;20.804;2023-03-29T03:37:28;96999.50;;;-5.82;66.16
75290;BME280;63883;48.996;20.804;2023-03-29T03:39:53;96999.78;;;-5.76;65.55
75290;BME280;63883;48.996;20.804;2023-03-29T03:42:19;97006.19;;;-5.81;65.59
75290;BME280;63883;48.996;20.804;2023-03-29T03:44:45;97006.63;;;-5.91;66.35
75290;BME280;63883;48.996;20.804;2023-03-29T03:47:11;97005.91;;;-6.08;67.11
75290;BME280;63883;48.996;20.804;2023-03-29T03:49:39;97014.03;;;-6.29;67.99
75290;BME280;63883;48.996;20.804;2023-03-29T03:52:06;97014.28;;;-6.43;68.77
75290;BME280;63883;48.996;20.804;2023-03-29T03:54:32;97013.50;;;-6.59;69.12
75290;BME280;63883;48.996;20.804;2023-03-29T03:56:58;97017.16;;;-6.71;69.48
75290;BME280;63883;48.996;20.804;2023-03-29T03:59:24;97013.38;;;-6.80;69.89
75290;BME280;63883;48.996;20.804;2023-03-29T04:01:50;97026.56;;;-6.81;69.75
75290;BME280;63883;48.996;20.804;2023-03-29T04:04:16;97022.38;;;-7.00;70.90
75290;BME280;63883;48.996;20.804;2023-03-29T04:06:41;97030.06;;;-7.12;71.42
75290;BME280;63883;48.996;20.804;2023-03-29T04:09:08;97030.91;;;-7.29;72.02
75290;BME280;63883;48.996;20.804;2023-03-29T04:11:34;97031.53;;;-7.33;72.07
75290;BME280;63883;48.996;20.804;2023-03-29T04:14:00;97032.66;;;-7.44;72.62
75290;BME280;63883;48.996;20.804;2023-03-29T04:16:27;97032.88;;;-7.56;72.92
75290;BME280;63883;48.996;20.804;2023-03-29T04:18:53;97038.94;;;-7.67;73.77
75290;BME280;63883;48.996;20.804;2023-03-29T04:21:19;97035.31;;;-7.73;74.96
75290;BME280;63883;48.996;20.804;2023-03-29T04:23:45;97040.81;;;-7.79;75.77
75290;BME280;63883;48.996;20.804;2023-03-29T04:26:13;97045.13;;;-7.91;76.48
75290;BME280;63883;48.996;20.804;2023-03-29T04:28:39;97038.16;;;-7.98;77.21
75290;BME280;63883;48.996;20.804;2023-03-29T04:31:12;97046.31;;;-8.01;78.23
75290;BME280;63883;48.996;20.804;2023-03-29T04:33:38;97039.00;;;-8.14;77.88
75290;BME280;63883;48.996;20.804;2023-03-29T04:36:05;97039.81;;;-8.31;78.02
75290;BME280;63883;48.996;20.804;2023-03-29T04:38:32;97042.56;;;-8.41;78.86
75290;BME280;63883;48.996;20.804;2023-03-29T04:41:01;97050.28;;;-8.51;79.27
75290;BME280;63883;48.996;20.804;2023-03-29T04:43:29;97048.25;;;-8.58;78.95
75290;BME280;63883;48.996;20.804;2023-03-29T04:45:55;97054.19;;;-8.55;77.81
75290;BME280;63883;48.996;20.804;2023-03-29T04:48:22;97057.38;;;-8.57;78.24
75290;BME280;63883;48.996;20.804;2023-03-29T04:50:48;97058.72;;;-8.62;78.85
75290;BME280;63883;48.996;20.804;2023-03-29T04:53:14;97064.97;;;-8.69;78.91
75290;BME280;63883;48.996;20.804;2023-03-29T04:55:39;97058.25;;;-8.72;79.51
75290;BME280;63883;48.996;20.804;2023-03-29T04:58:05;97062.38;;;-8.56;79.59
75290;BME280;63883;48.996;20.804;2023-03-29T05:00:31;97066.47;;;-8.56;79.60
75290;BME280;63883;48.996;20.804;2023-03-29T05:02:57;97052.44;;;-8.41;79.34
75290;BME280;63883;48.996;20.804;2023-03-29T05:05:23;97053.69;;;-8.17;78.38
75290;BME280;63883;48.996;20.804;2023-03-29T05:07:49;97047.06;;;-8.18;77.87
75290;BME280;63883;48.996;20.804;2023-03-29T05:10:15;97057.63;;;-8.20;79.13
75290;BME280;63883;48.996;20.804;2023-03-29T05:12:41;97057.56;;;-8.06;79.39
75290;BME280;63883;48.996;20.804;2023-03-29T05:15:07;97059.06;;;-7.93;79.00
75290;BME280;63883;48.996;20.804;2023-03-29T05:17:34;97061.59;;;-7.75;78.50
75290;BME280;63883;48.996;20.804;2023-03-29T05:20:00;97057.91;;;-7.67;77.97
75290;BME280;63883;48.996;20.804;2023-03-29T05:22:26;97072.84;;;-7.66;77.76
75290;BME280;63883;48.996;20.804;2023-03-29T05:24:53;97064.69;;;-7.47;76.25
75290;BME280;63883;48.996;20.804;2023-03-29T05:27:19;97071.81;;;-7.53;76.11
75290;BME280;63883;48.996;20.804;2023-03-29T05:29:47;97069.34;;;-7.53;75.09
75290;BME280;63883;48.996;20.804;2023-03-29T05:32:13;97076.16;;;-7.65;75.27
75290;BME280;63883;48.996;20.804;2023-03-29T05:34:39;97080.47;;;-7.77;75.41
75290;BME280;63883;48.996;20.804;2023-03-29T05:37:05;97070.25;;;-7.83;74.64
75290;BME280;63883;48.996;20.804;2023-03-29T05:39:31;97074.44;;;-7.82;74.60
75290;BME280;63883;48.996;20.804;2023-03-29T05:41:59;97075.91;;;-7.54;74.27
75290;BME280;63883;48.996;20.804;2023-03-29T05:44:25;97073.94;;;-7.27;73.49
75290;BME280;63883;48.996;20.804;2023-03-29T05:46:51;97080.16;;;-7.01;73.63
75290;BME280;63883;48.996;20.804;2023-03-29T05:49:17;97080.13;;;-6.67;71.99
75290;BME280;63883;48.996;20.804;2023-03-29T05:51:43;97086.88;;;-6.10;70.44
75290;BME280;63883;48.996;20.804;2023-03-29T05:54:10;97084.59;;;-5.86;69.91
75290;BME280;63883;48.996;20.804;2023-03-29T05:56:37;97082.00;;;-5.70;70.26
75290;BME280;63883;48.996;20.804;2023-03-29T05:59:02;97087.59;;;-5.55;69.36
75290;BME280;63883;48.996;20.804;2023-03-29T06:01:29;97090.09;;;-5.35;69.16
75290;BME280;63883;48.996;20.804;2023-03-29T06:03:55;97091.84;;;-5.14;68.30
75290;BME280;63883;48.996;20.804;2023-03-29T06:06:22;97100.25;;;-4.91;67.65
75290;BME280;63883;48.996;20.804;2023-03-29T06:08:48;97098.84;;;-4.63;66.53
75290;BME280;63883;48.996;20.804;2023-03-29T06:11:15;97105.69;;;-4.37;65.81
75290;BME280;63883;48.996;20.804;2023-03-29T06:13:42;97101.63;;;-4.13;65.66
75290;BME280;63883;48.996;20.804;2023-03-29T06:16:09;97106.56;;;-3.92;65.12
75290;BME280;63883;48.996;20.804;2023-03-29T06:18:35;97112.97;;;-3.76;63.41
75290;BME280;63883;48.996;20.804;2023-03-29T06:21:02;97110.69;;;-3.70;62.91
75290;BME280;63883;48.996;20.804;2023-03-29T06:23:28;97115.03;;;-3.65;61.96
75290;BME280;63883;48.996;20.804;2023-03-29T06:25:55;97113.03;;;-3.51;61.33
75290;BME280;63883;48.996;20.804;2023-03-29T06:28:21;97110.88;;;-3.42;62.01
75290;BME280;63883;48.996;20.804;2023-03-29T06:30:48;97111.34;;;-3.28;61.33
75290;BME280;63883;48.996;20.804;2023-03-29T06:33:14;97109.53;;;-3.08;61.30
75290;BME280;63883;48.996;20.804;2023-03-29T06:35:43;97113.69;;;-2.84;60.32
75290;BME280;63883;48.996;20.804;2023-03-29T06:38:10;97107.56;;;-2.68;59.42
75290;BME280;63883;48.996;20.804;2023-03-29T06:40:36;97106.44;;;-2.51;58.18
75290;BME280;63883;48.996;20.804;2023-03-29T06:43:04;97111.97;;;-2.34;57.56
75290;BME280;63883;48.996;20.804;2023-03-29T06:45:32;97107.50;;;-2.17;57.07
75290;BME280;63883;48.996;20.804;2023-03-29T06:47:58;97117.16;;;-2.00;56.38
75290;BME280;63883;48.996;20.804;2023-03-29T06:50:24;97119.22;;;-1.88;56.32
75290;BME280;63883;48.996;20.804;2023-03-29T06:52:50;97111.38;;;-1.70;56.47
75290;BME280;63883;48.996;20.804;2023-03-29T06:55:17;97111.72;;;-1.58;55.37
75290;BME280;63883;48.996;20.804;2023-03-29T06:57:43;97112.28;;;-1.38;55.94
75290;BME280;63883;48.996;20.804;2023-03-29T07:00:10;97112.59;;;-1.26;54.59
75290;BME280;63883;48.996;20.804;2023-03-29T07:02:41;97113.63;;;-1.20;54.38
75290;BME280;63883;48.996;20.804;2023-03-29T07:05:08;97118.22;;;-1.03;53.63
75290;BME280;63883;48.996;20.804;2023-03-29T07:07:37;97117.78;;;-0.89;53.40
75290;BME280;63883;48.996;20.804;2023-03-29T07:10:28;97116.56;;;-0.70;53.02
75290;BME280;63883;48.996;20.804;2023-03-29T07:12:58;97122.06;;;-0.52;50.99
75290;BME280;63883;48.996;20.804;2023-03-29T07:15:27;97127.25;;;-0.43;50.15
75290;BME280;63883;48.996;20.804;2023-03-29T07:17:53;97120.91;;;-0.30;49.34
75290;BME280;63883;48.996;20.804;2023-03-29T07:20:20;97120.16;;;-0.26;48.48
75290;BME280;63883;48.996;20.804;2023-03-29T07:22:48;97124.44;;;-0.22;48.76
75290;BME280;63883;48.996;20.804;2023-03-29T07:25:16;97121.41;;;-0.07;48.20
75290;BME280;63883;48.996;20.804;2023-03-29T07:27:43;97120.72;;;-0.02;47.26
75290;BME280;63883;48.996;20.804;2023-03-29T07:30:13;97125.44;;;-0.14;47.29
75290;BME280;63883;48.996;20.804;2023-03-29T07:32:40;97128.38;;;-0.31;45.46
75290;BME280;63883;48.996;20.804;2023-03-29T07:35:09;97115.28;;;-0.20;46.70
75290;BME280;63883;48.996;20.804;2023-03-29T07:37:36;97121.81;;;0.11;47.48
75290;BME280;63883;48.996;20.804;2023-03-29T07:40:05;97111.53;;;0.38;47.23
75290;BME280;63883;48.996;20.804;2023-03-29T07:42:37;97129.91;;;0.37;44.63
75290;BME280;63883;48.996;20.804;2023-03-29T07:45:04;97117.72;;;0.54;45.65
75290;BME280;63883;48.996;20.804;2023-03-29T07:47:30;97128.91;;;0.69;45.59
75290;BME280;63883;48.996;20.804;2023-03-29T07:49:56;97125.63;;;0.73;45.37
75290;BME280;63883;48.996;20.804;2023-03-29T07:52:23;97138.28;;;0.78;43.29
75290;BME280;63883;48.996;20.804;2023-03-29T07:54:49;97126.41;;;0.69;41.84
75290;BME280;63883;48.996;20.804;2023-03-29T07:57:15;97124.63;;;0.65;43.68
75290;BME280;63883;48.996;20.804;2023-03-29T07:59:41;97129.63;;;0.64;40.19
75290;BME280;63883;48.996;20.804;2023-03-29T08:02:09;97130.84;;;0.83;39.21
75290;BME280;63883;48.996;20.804;2023-03-29T08:04:35;97125.41;;;1.05;42.69
75290;BME280;63883;48.996;20.804;2023-03-29T08:07:01;97125.28;;;0.99;41.00
75290;BME280;63883;48.996;20.804;2023-03-29T08:09:27;97125.13;;;0.90;39.03
75290;BME280;63883;48.996;20.804;2023-03-29T08:11:53;97125.19;;;0.94;42.16
75290;BME280;63883;48.996;20.804;2023-03-29T08:14:18;97117.09;;;1.09;43.79
75290;BME280;63883;48.996;20.804;2023-03-29T08:16:46;97116.53;;;1.22;42.66
75290;BME280;63883;48.996;20.804;2023-03-29T08:19:12;97123.16;;;1.20;39.87
75290;BME280;63883;48.996;20.804;2023-03-29T08:21:38;97118.03;;;1.14;41.03
75290;BME280;63883;48.996;20.804;2023-03-29T08:24:05;97116.63;;;1.28;42.79
75290;BME280;63883;48.996;20.804;2023-03-29T08:26:30;97117.63;;;1.39;43.73
75290;BME280;63883;48.996;20.804;2023-03-29T08:28:56;97112.16;;;1.62;43.01
75290;BME280;63883;48.996;20.804;2023-03-29T08:31:22;97108.91;;;1.69;42.29
75290;BME280;63883;48.996;20.804;2023-03-29T08:33:48;97107.28;;;1.74;43.86
75290;BME280;63883;48.996;20.804;2023-03-29T08:36:13;97106.50;;;1.76;43.95
75290;BME280;63883;48.996;20.804;2023-03-29T08:38:39;97109.16;;;1.84;40.19
75290;BME280;63883;48.996;20.804;2023-03-29T08:41:25;97100.91;;;1.92;41.44
75290;BME280;63883;48.996;20.804;2023-03-29T08:49:04;97096.81;;;2.01;39.19
75290;BME280;63883;48.996;20.804;2023-03-29T08:51:39;97095.44;;;2.24;39.55
75290;BME280;63883;48.996;20.804;2023-03-29T08:56:35;97095.06;;;2.57;37.63
75290;BME280;63883;48.996;20.804;2023-03-29T08:59:05;97089.50;;;2.85;39.94
75290;BME280;63883;48.996;20.804;2023-03-29T09:01:37;97090.56;;;3.07;37.03
75290;BME280;63883;48.996;20.804;2023-03-29T09:04:15;97078.69;;;3.97;36.96
75290;BME280;63883;48.996;20.804;2023-03-29T09:06:43;97080.84;;;4.98;36.40
75290;BME280;63883;48.996;20.804;2023-03-29T09:09:14;97077.56;;;5.72;32.66
75290;BME280;63883;48.996;20.804;2023-03-29T09:11:56;97079.19;;;6.27;30.20
75290;BME280;63883;48.996;20.804;2023-03-29T09:16:58;97061.25;;;6.91;30.36
75290;BME280;63883;48.996;20.804;2023-03-29T09:23:10;97064.81;;;7.85;27.07
75290;BME280;63883;48.996;20.804;2023-03-29T09:25:47;97061.38;;;7.88;27.55
75290;BME280;63883;48.996;20.804;2023-03-29T09:28:32;97054.47;;;8.00;28.63
75290;BME280;63883;48.996;20.804;2023-03-29T09:31:05;97060.34;;;8.08;26.39
75290;BME280;63883;48.996;20.804;2023-03-29T09:33:42;97068.50;;;8.42;27.24
75290;BME280;63883;48.996;20.804;2023-03-29T09:36:50;97065.22;;;8.28;24.90
75290;BME280;63883;48.996;20.804;2023-03-29T09:39:17;97062.13;;;7.99;25.27
75290;BME280;63883;48.996;20.804;2023-03-29T09:44:19;97060.81;;;7.54;27.65
75290;BME280;63883;48.996;20.804;2023-03-29T09:46:52;97071.03;;;7.44;26.09
75290;BME280;63883;48.996;20.804;2023-03-29T09:49:22;97063.00;;;7.96;22.78
75290;BME280;63883;48.996;20.804;2023-03-29T09:51:55;97057.66;;;8.22;23.01
75290;BME280;63883;48.996;20.804;2023-03-29T09:54:22;97051.50;;;8.44;23.10
75290;BME280;63883;48.996;20.804;2023-03-29T09:56:48;97043.50;;;8.76;26.27
75290;BME280;63883;48.996;20.804;2023-03-29T09:59:14;97050.13;;;8.88;25.77
75290;BME280;63883;48.996;20.804;2023-03-29T10:01:41;97047.75;;;8.76;22.90
75290;BME280;63883;48.996;20.804;2023-03-29T10:04:10;97043.25;;;8.96;21.35
75290;BME280;63883;48.996;20.804;2023-03-29T10:06:41;97042.91;;;9.20;20.52
75290;BME280;63883;48.996;20.804;2023-03-29T10:09:14;97034.13;;;9.39;22.39
75290;BME280;63883;48.996;20.804;2023-03-29T10:11:45;97040.19;;;8.70;21.34
75290;BME280;63883;48.996;20.804;2023-03-29T10:14:16;97032.09;;;9.06;24.63
75290;BME280;63883;48.996;20.804;2023-03-29T10:16:44;97033.41;;;9.31;24.61
75290;BME280;63883;48.996;20.804;2023-03-29T10:19:20;97024.72;;;10.41;25.22
75290;BME280;63883;48.996;20.804;2023-03-29T10:21:48;97026.50;;;10.38;21.60
75290;BME280;63883;48.996;20.804;2023-03-29T10:24:21;97024.03;;;10.33;23.36
75290;BME280;63883;48.996;20.804;2023-03-29T10:26:53;97021.44;;;10.78;21.06
75290;BME280;63883;48.996;20.804;2023-03-29T10:29:20;97020.06;;;10.63;21.07
75290;BME280;63883;48.996;20.804;2023-03-29T10:31:48;97016.19;;;10.85;19.51
75290;BME280;63883;48.996;20.804;2023-03-29T10:34:14;97023.34;;;10.68;21.13
75290;BME280;63883;48.996;20.804;2023-03-29T10:36:54;97012.31;;;11.06;21.27
75290;BME280;63883;48.996;20.804;2023-03-29T10:39:23;97021.16;;;11.30;19.30
75290;BME280;63883;48.996;20.804;2023-03-29T10:41:51;97013.25;;;11.39;20.41
75290;BME280;63883;48.996;20.804;2023-03-29T10:44:31;97012.53;;;11.34;23.26
75290;BME280;63883;48.996;20.804;2023-03-29T10:49:40;97003.94;;;11.38;20.67
75290;BME280;63883;48.996;20.804;2023-03-29T10:52:06;96999.63;;;11.76;22.59
75290;BME280;63883;48.996;20.804;2023-03-29T10:54:32;96993.97;;;12.28;21.59
75290;BME280;63883;48.996;20.804;2023-03-29T10:57:03;96997.81;;;12.44;18.93
75290;BME280;63883;48.996;20.804;2023-03-29T10:59:31;96990.00;;;12.18;21.99
75290;BME280;63883;48.996;20.804;2023-03-29T11:02:21;96989.44;;;12.39;19.32
75290;BME280;63883;48.996;20.804;2023-03-29T11:07:42;96981.25;;;13.14;19.58
75290;BME280;63883;48.996;20.804;2023-03-29T11:10:32;96972.91;;;12.78;19.86
75290;BME280;63883;48.996;20.804;2023-03-29T11:20:44;96962.16;;;13.24;19.81
75290;BME280;63883;48.996;20.804;2023-03-29T11:23:23;96966.88;;;13.37;17.03
75290;BME280;63883;48.996;20.804;2023-03-29T11:34:03;96951.56;;;12.79;18.03
75290;BME280;63883;48.996;20.804;2023-03-29T11:41:45;96948.88;;;13.89;18.76
75290;BME280;63883;48.996;20.804;2023-03-29T11:44:19;96951.34;;;13.67;17.86
75290;BME280;63883;48.996;20.804;2023-03-29T11:47:31;96946.06;;;13.19;18.17
75290;BME280;63883;48.996;20.804;2023-03-29T11:50:16;96943.13;;;13.32;16.06
75290;BME280;63883;48.996;20.804;2023-03-29T11:52:50;96931.50;;;13.21;17.75
75290;BME280;63883;48.996;20.804;2023-03-29T11:55:23;96943.75;;;13.64;16.05
75290;BME280;63883;48.996;20.804;2023-03-29T11:57:55;96941.09;;;13.41;17.18
75290;BME280;63883;48.996;20.804;2023-03-29T12:00:34;96930.81;;;13.43;16.94
75290;BME280;63883;48.996;20.804;2023-03-29T12:03:07;96931.16;;;14.06;18.41
75290;BME280;63883;48.996;20.804;2023-03-29T12:05:55;96930.63;;;14.22;15.77
75290;BME280;63883;48.996;20.804;2023-03-29T12:08:54;96923.50;;;14.30;16.20
75290;BME280;63883;48.996;20.804;2023-03-29T12:17:18;96923.13;;;15.49;16.71
75290;BME280;63883;48.996;20.804;2023-03-29T12:22:22;96922.66;;;14.76;14.89
75290;BME280;63883;48.996;20.804;2023-03-29T12:24:49;96917.31;;;14.59;15.11
75290;BME280;63883;48.996;20.804;2023-03-29T12:32:30;96911.28;;;15.67;15.45
75290;BME280;63883;48.996;20.804;2023-03-29T12:38:00;96912.00;;;15.49;15.40
75290;BME280;63883;48.996;20.804;2023-03-29T12:40:39;96917.38;;;15.43;12.87
75290;BME280;63883;48.996;20.804;2023-03-29T12:43:08;96913.97;;;15.00;13.93
75290;BME280;63883;48.996;20.804;2023-03-29T12:45:43;96913.44;;;14.92;14.21
75290;BME280;63883;48.996;20.804;2023-03-29T12:48:21;96903.81;;;15.61;11.92
75290;BME280;63883;48.996;20.804;2023-03-29T12:50:52;96902.53;;;15.91;15.01
75290;BME280;63883;48.996;20.804;2023-03-29T12:53:34;96896.00;;;16.61;15.92
75290;BME280;63883;48.996;20.804;2023-03-29T12:58:40;96903.25;;;16.51;15.32
75290;BME280;63883;48.996;20.804;2023-03-29T13:03:47;96901.53;;;16.52;14.75
75290;BME280;63883;48.996;20.804;2023-03-29T13:09:24;96900.03;;;17.02;11.97
75290;BME280;63883;48.996;20.804;2023-03-29T13:14:45;96898.31;;;16.09;13.18
75290;BME280;63883;48.996;20.804;2023-03-29T13:23:10;96880.63;;;16.95;14.58
75290;BME280;63883;48.996;20.804;2023-03-29T13:46:05;96869.66;;;15.37;13.52
75290;BME280;63883;48.996;20.804;2023-03-29T13:48:32;96866.13;;;15.80;12.42
75290;BME280;63883;48.996;20.804;2023-03-29T13:54:12;96859.63;;;15.51;14.52
75290;BME280;63883;48.996;20.804;2023-03-29T13:59:22;96864.56;;;15.15;13.86
75290;BME280;63883;48.996;20.804;2023-03-29T14:01:51;96865.31;;;14.54;14.33
75290;BME280;63883;48.996;20.804;2023-03-29T14:04:54;96860.09;;;15.81;14.18
75290;BME280;63883;48.996;20.804;2023-03-29T14:07:21;96859.13;;;16.02;13.61
75290;BME280;63883;48.996;20.804;2023-03-29T14:09:51;96862.34;;;16.45;13.37
75290;BME280;63883;48.996;20.804;2023-03-29T14:12:18;96859.88;;;16.98;13.85
75290;BME280;63883;48.996;20.804;2023-03-29T14:14:45;96859.22;;;16.76;14.55
75290;BME280;63883;48.996;20.804;2023-03-29T14:17:21;96856.00;;;17.76;14.61
75290;BME280;63883;48.996;20.804;2023-03-29T14:19:49;96860.06;;;17.64;14.04
75290;BME280;63883;48.996;20.804;2023-03-29T14:22:18;96860.38;;;16.88;14.46
75290;BME280;63883;48.996;20.804;2023-03-29T14:24:47;96857.44;;;17.47;15.19
75290;BME280;63883;48.996;20.804;2023-03-29T14:27:14;96863.28;;;16.99;14.46
75290;BME280;63883;48.996;20.804;2023-03-29T14:29:44;96857.00;;;17.04;13.73
75290;BME280;63883;48.996;20.804;2023-03-29T14:32:14;96852.16;;;17.33;14.42
75290;BME280;63883;48.996;20.804;2023-03-29T14:34:46;96850.34;;;16.82;14.47
75290;BME280;63883;48.996;20.804;2023-03-29T14:37:16;96853.53;;;16.32;13.10
75290;BME280;63883;48.996;20.804;2023-03-29T14:39:43;96854.69;;;16.44;14.94
75290;BME280;63883;48.996;20.804;2023-03-29T14:42:18;96849.63;;;16.42;15.61
75290;BME280;63883;48.996;20.804;2023-03-29T14:44:47;96843.00;;;16.36;14.94
75290;BME280;63883;48.996;20.804;2023-03-29T14:47:26;96844.97;;;16.69;13.63
75290;BME280;63883;48.996;20.804;2023-03-29T14:49:54;96841.19;;;16.76;14.71
75290;BME280;63883;48.996;20.804;2023-03-29T14:52:25;96840.28;;;16.39;13.66
75290;BME280;63883;48.996;20.804;2023-03-29T14:54:53;96847.56;;;15.92;14.08
75290;BME280;63883;48.996;20.804;2023-03-29T14:57:25;96838.09;;;16.13;14.14
75290;BME280;63883;48.996;20.804;2023-03-29T15:00:14;96837.19;;;16.33;15.98
75290;BME280;63883;48.996;20.804;2023-03-29T15:02:55;96839.13;;;16.28;14.98
75290;BME280;63883;48.996;20.804;2023-03-29T15:05:37;96840.38;;;16.19;15.67
75290;BME280;63883;48.996;20.804;2023-03-29T15:08:04;96841.03;;;16.79;15.40
75290;BME280;63883;48.996;20.804;2023-03-29T15:10:34;96837.47;;;16.27;12.82